createdAt,value
2023-02-08T00:00:15.936Z,622.00
2023-02-08T00:00:46.013Z,637.00
2023-02-08T00:01:16.098Z,631.00
2023-02-08T00:01:46.195Z,625.00
2023-02-08T00:02:16.300Z,627.00
2023-02-08T00:02:46.425Z,625.00
2023-02-08T00:03:16.476Z,623.00
2023-02-08T00:03:46.437Z,625.00
2023-02-08T00:04:16.516Z,627.00
2023-02-08T00:04:46.581Z,625.00
2023-02-08T00:05:16.612Z,630.00
2023-02-08T00:05:46.641Z,628.00
2023-02-08T00:06:16.689Z,630.00
2023-02-08T00:06:46.724Z,632.00
2023-02-08T00:07:16.778Z,631.00
2023-02-08T00:07:46.809Z,634.00
2023-02-08T00:08:16.845Z,632.00
2023-02-08T00:08:46.885Z,631.00
2023-02-08T00:09:16.924Z,632.00
2023-02-08T00:09:46.978Z,631.00
2023-02-08T00:10:17.045Z,631.00
2023-02-08T00:10:47.087Z,629.00
2023-02-08T00:11:17.133Z,633.00
2023-02-08T00:11:47.179Z,633.00
2023-02-08T00:12:17.211Z,631.00
2023-02-08T00:12:47.319Z,631.00
2023-02-08T00:13:17.364Z,632.00
2023-02-08T00:13:47.427Z,633.00
2023-02-08T00:14:17.465Z,632.00
2023-02-08T00:14:47.539Z,631.00
2023-02-08T00:15:17.621Z,631.00
2023-02-08T00:15:47.809Z,631.00
2023-02-08T00:16:17.928Z,630.00
2023-02-08T00:16:47.839Z,628.00
2023-02-08T00:17:17.935Z,628.00
2023-02-08T00:17:48.011Z,628.00
2023-02-08T00:18:18.092Z,628.00
2023-02-08T00:18:48.226Z,628.00
2023-02-08T00:19:18.168Z,626.00
2023-02-08T00:19:48.249Z,632.00
2023-02-08T00:20:18.340Z,633.00
2023-02-08T00:20:48.422Z,633.00
2023-02-08T00:21:18.515Z,629.00
2023-02-08T00:21:48.606Z,628.00
2023-02-08T00:22:18.696Z,628.00
2023-02-08T00:22:48.781Z,624.00
2023-02-08T00:23:18.863Z,627.00
2023-02-08T00:23:48.958Z,625.00
2023-02-08T00:24:19.042Z,625.00
2023-02-08T00:24:49.127Z,624.00
2023-02-08T00:25:19.234Z,625.00
2023-02-08T00:25:49.317Z,628.00
2023-02-08T00:26:19.410Z,627.00
2023-02-08T00:26:49.501Z,623.00
2023-02-08T00:27:19.697Z,627.00
2023-02-08T00:27:49.687Z,627.00
2023-02-08T00:28:19.790Z,624.00
2023-02-08T00:28:49.744Z,627.00
2023-02-08T00:29:19.825Z,628.00
2023-02-08T00:29:49.838Z,627.00
2023-02-08T00:30:19.911Z,628.00
2023-02-08T00:30:50.085Z,629.00
2023-02-08T00:31:20.200Z,628.00
2023-02-08T00:31:50.101Z,631.00
2023-02-08T00:32:20.061Z,633.00
2023-02-08T00:32:50.146Z,631.00
2023-02-08T00:33:20.246Z,632.00
2023-02-08T00:33:50.357Z,631.00
2023-02-08T00:34:20.420Z,632.00
2023-02-08T00:34:50.520Z,631.00
2023-02-08T00:35:20.580Z,627.00
2023-02-08T00:35:50.667Z,625.00
2023-02-08T00:36:20.764Z,626.00
2023-02-08T00:36:50.851Z,626.00
2023-02-08T00:37:20.933Z,626.00
2023-02-08T00:37:51.008Z,627.00
2023-02-08T00:38:21.105Z,628.00
2023-02-08T00:38:51.178Z,627.00
2023-02-08T00:39:21.257Z,625.00
2023-02-08T00:39:51.345Z,624.00
2023-02-08T00:40:21.439Z,622.00
2023-02-08T00:40:51.518Z,623.00
2023-02-08T00:41:21.606Z,624.00
2023-02-08T00:41:51.687Z,625.00
2023-02-08T00:42:21.780Z,623.00
2023-02-08T00:42:51.868Z,620.00
2023-02-08T00:43:22.000Z,618.00
2023-02-08T00:43:51.966Z,617.00
2023-02-08T00:44:22.048Z,619.00
2023-02-08T00:44:52.130Z,620.00
2023-02-08T00:45:22.213Z,616.00
2023-02-08T00:45:52.288Z,615.00
2023-02-08T00:46:22.434Z,614.00
2023-02-08T00:46:52.474Z,615.00
2023-02-08T00:47:22.441Z,617.00
2023-02-08T00:47:52.526Z,614.00
2023-02-08T00:48:22.610Z,610.00
2023-02-08T00:48:52.696Z,611.00
2023-02-08T00:49:22.806Z,610.00
2023-02-08T00:49:52.862Z,611.00
2023-02-08T00:50:22.946Z,613.00
2023-02-08T00:50:53.035Z,618.00
2023-02-08T00:51:23.112Z,618.00
2023-02-08T00:51:53.207Z,615.00
2023-02-08T00:52:23.289Z,614.00
2023-02-08T00:52:53.369Z,616.00
2023-02-08T00:53:23.466Z,614.00
2023-02-08T00:53:53.478Z,618.00
2023-02-08T00:54:23.556Z,624.00
2023-02-08T00:54:53.643Z,612.00
2023-02-08T00:55:23.725Z,611.00
2023-02-08T00:55:53.818Z,613.00
2023-02-08T00:56:23.911Z,611.00
2023-02-08T00:56:54.015Z,613.00
2023-02-08T00:57:24.076Z,613.00
2023-02-08T00:57:54.173Z,614.00
2023-02-08T00:58:24.252Z,615.00
2023-02-08T00:58:54.325Z,615.00
2023-02-08T00:59:24.402Z,614.00
2023-02-08T00:59:54.511Z,615.00
2023-02-08T01:00:24.600Z,620.00
2023-02-08T01:00:54.722Z,621.00
2023-02-08T01:01:24.770Z,620.00
2023-02-08T01:01:54.939Z,620.00
2023-02-08T01:02:24.890Z,619.00
2023-02-08T01:02:54.975Z,615.00
2023-02-08T01:03:25.063Z,614.00
2023-02-08T01:03:55.139Z,615.00
2023-02-08T01:04:25.249Z,618.00
2023-02-08T01:05:31.711Z,630.00
2023-02-08T01:06:01.747Z,618.00
2023-02-08T01:06:31.791Z,619.00
2023-02-08T01:07:01.825Z,619.00
2023-02-08T01:07:31.861Z,621.00
2023-02-08T01:08:01.888Z,622.00
2023-02-08T01:08:31.932Z,620.00
2023-02-08T01:09:02.003Z,619.00
2023-02-08T01:09:32.064Z,621.00
2023-02-08T01:10:02.084Z,619.00
2023-02-08T01:10:32.143Z,619.00
2023-02-08T01:11:02.162Z,617.00
2023-02-08T01:11:32.212Z,616.00
2023-02-08T01:12:02.234Z,615.00
2023-02-08T01:12:32.281Z,617.00
2023-02-08T01:13:02.315Z,619.00
2023-02-08T01:13:32.480Z,616.00
2023-02-08T01:14:02.385Z,616.00
2023-02-08T01:14:32.434Z,615.00
2023-02-08T01:15:02.469Z,616.00
2023-02-08T01:15:32.541Z,616.00
2023-02-08T01:16:02.658Z,613.00
2023-02-08T01:16:32.716Z,615.00
2023-02-08T01:17:02.704Z,614.00
2023-02-08T01:17:32.783Z,618.00
2023-02-08T01:18:02.867Z,617.00
2023-02-08T01:18:32.959Z,614.00
2023-02-08T01:19:03.046Z,615.00
2023-02-08T01:19:33.152Z,618.00
2023-02-08T01:20:03.199Z,620.00
2023-02-08T01:20:33.284Z,622.00
2023-02-08T01:21:03.369Z,618.00
2023-02-08T01:21:33.453Z,617.00
2023-02-08T01:22:03.528Z,615.00
2023-02-08T01:22:33.613Z,616.00
2023-02-08T01:23:03.699Z,614.00
2023-02-08T01:23:33.801Z,614.00
2023-02-08T01:24:03.875Z,614.00
2023-02-08T01:24:33.945Z,611.00
2023-02-08T01:25:04.030Z,610.00
2023-02-08T01:25:34.127Z,612.00
2023-02-08T01:26:04.217Z,610.00
2023-02-08T01:26:34.284Z,608.00
2023-02-08T01:27:04.366Z,607.00
2023-02-08T01:27:34.454Z,611.00
2023-02-08T01:28:04.621Z,611.00
2023-02-08T01:28:34.615Z,612.00
2023-02-08T01:29:04.690Z,609.00
2023-02-08T01:29:34.777Z,609.00
2023-02-08T01:30:04.863Z,609.00
2023-02-08T01:30:34.984Z,610.00
2023-02-08T01:31:04.990Z,611.00
2023-02-08T01:31:35.114Z,609.00
2023-02-08T01:32:05.099Z,611.00
2023-02-08T01:32:35.189Z,612.00
2023-02-08T01:33:05.274Z,613.00
2023-02-08T01:33:35.364Z,616.00
2023-02-08T01:34:05.456Z,613.00
2023-02-08T01:34:35.531Z,614.00
2023-02-08T01:35:05.642Z,614.00
2023-02-08T01:35:35.712Z,614.00
2023-02-08T01:36:05.778Z,614.00
2023-02-08T01:36:35.858Z,614.00
2023-02-08T01:37:05.956Z,610.00
2023-02-08T01:37:36.035Z,611.00
2023-02-08T01:38:06.121Z,612.00
2023-02-08T01:38:36.214Z,616.00
2023-02-08T01:39:06.280Z,610.00
2023-02-08T01:39:36.366Z,609.00
2023-02-08T01:40:06.439Z,608.00
2023-02-08T01:40:36.524Z,606.00
2023-02-08T01:41:06.626Z,608.00
2023-02-08T01:41:36.702Z,608.00
2023-02-08T01:42:06.787Z,605.00
2023-02-08T01:42:36.868Z,607.00
2023-02-08T01:43:06.942Z,604.00
2023-02-08T01:43:37.031Z,594.00
2023-02-08T01:44:07.116Z,597.00
2023-02-08T01:44:37.195Z,601.00
2023-02-08T01:45:07.272Z,601.00
2023-02-08T01:45:37.396Z,599.00
2023-02-08T01:46:07.558Z,598.00
2023-02-08T01:46:37.562Z,599.00
2023-02-08T01:47:07.651Z,604.00
2023-02-08T01:47:37.725Z,603.00
2023-02-08T01:48:07.809Z,603.00
2023-02-08T01:48:37.906Z,602.00
2023-02-08T01:49:07.982Z,608.00
2023-02-08T01:49:38.057Z,602.00
2023-02-08T01:50:08.142Z,603.00
2023-02-08T01:50:38.476Z,609.00
2023-02-08T01:51:08.230Z,609.00
2023-02-08T01:51:38.315Z,610.00
2023-02-08T01:52:08.386Z,612.00
2023-02-08T01:52:38.473Z,611.00
2023-02-08T01:53:08.558Z,612.00
2023-02-08T01:53:38.649Z,610.00
2023-02-08T01:54:08.727Z,610.00
2023-02-08T01:54:38.805Z,610.00
2023-02-08T01:55:08.891Z,615.00
2023-02-08T01:55:38.971Z,615.00
2023-02-08T01:56:09.049Z,619.00
2023-02-08T01:56:39.130Z,608.00
2023-02-08T01:57:09.229Z,603.00
2023-02-08T01:57:39.306Z,603.00
2023-02-08T01:58:09.396Z,602.00
2023-02-08T01:58:39.482Z,602.00
2023-02-08T01:59:09.558Z,607.00
2023-02-08T01:59:39.646Z,607.00
2023-02-08T02:00:09.733Z,605.00
2023-02-08T02:00:40.223Z,608.00
2023-02-08T02:01:09.914Z,608.00
2023-02-08T02:01:39.986Z,605.00
2023-02-08T02:02:10.064Z,603.00
2023-02-08T02:02:40.145Z,602.00
2023-02-08T02:03:10.231Z,602.00
2023-02-08T02:03:40.308Z,602.00
2023-02-08T02:04:10.423Z,599.00
2023-02-08T02:04:40.494Z,596.00
2023-02-08T02:05:10.406Z,598.00
2023-02-08T02:05:40.440Z,596.00
2023-02-08T02:06:10.520Z,597.00
2023-02-08T02:06:40.525Z,600.00
2023-02-08T02:07:10.576Z,601.00
2023-02-08T02:07:40.609Z,599.00
2023-02-08T02:08:10.660Z,597.00
2023-02-08T02:08:40.691Z,603.00
2023-02-08T02:09:10.719Z,602.00
2023-02-08T02:09:40.745Z,598.00
2023-02-08T02:10:10.813Z,600.00
2023-02-08T02:10:41.214Z,602.00
2023-02-08T02:11:10.827Z,602.00
2023-02-08T02:11:40.867Z,600.00
2023-02-08T02:12:10.970Z,601.00
2023-02-08T02:12:41.014Z,602.00
2023-02-08T02:13:11.045Z,602.00
2023-02-08T02:13:41.107Z,602.00
2023-02-08T02:14:11.143Z,602.00
2023-02-08T02:14:41.173Z,604.00
2023-02-08T02:15:11.223Z,602.00
2023-02-08T02:15:41.306Z,595.00
2023-02-08T02:16:11.435Z,595.00
2023-02-08T02:16:41.458Z,595.00
2023-02-08T02:17:11.529Z,594.00
2023-02-08T02:17:41.589Z,596.00
2023-02-08T02:18:11.674Z,592.00
2023-02-08T02:18:41.767Z,594.00
2023-02-08T02:19:11.850Z,592.00
2023-02-08T02:19:41.933Z,592.00
2023-02-08T02:20:12.018Z,592.00
2023-02-08T02:20:42.572Z,598.00
2023-02-08T02:21:12.196Z,592.00
2023-02-08T02:21:42.300Z,591.00
2023-02-08T02:22:12.352Z,595.00
2023-02-08T02:22:42.446Z,594.00
2023-02-08T02:23:12.538Z,596.00
2023-02-08T02:23:42.628Z,594.00
2023-02-08T02:24:12.697Z,593.00
2023-02-08T02:24:42.781Z,595.00
2023-02-08T02:25:12.875Z,597.00
2023-02-08T02:25:42.945Z,598.00
2023-02-08T02:26:13.036Z,592.00
2023-02-08T02:26:43.113Z,588.00
2023-02-08T02:27:13.185Z,589.00
2023-02-08T02:27:43.275Z,591.00
2023-02-08T02:28:13.373Z,590.00
2023-02-08T02:28:43.453Z,590.00
2023-02-08T02:29:13.529Z,590.00
2023-02-08T02:29:43.604Z,590.00
2023-02-08T02:30:13.681Z,592.00
2023-02-08T02:30:43.973Z,593.00
2023-02-08T02:31:13.829Z,594.00
2023-02-08T02:31:43.955Z,595.00
2023-02-08T02:32:13.933Z,593.00
2023-02-08T02:32:44.042Z,593.00
2023-02-08T02:33:14.113Z,605.00
2023-02-08T02:33:44.201Z,603.00
2023-02-08T02:34:14.283Z,601.00
2023-02-08T02:34:44.353Z,601.00
2023-02-08T02:35:14.444Z,596.00
2023-02-08T02:35:44.523Z,595.00
2023-02-08T02:36:14.602Z,596.00
2023-02-08T02:36:44.691Z,594.00
2023-02-08T02:37:14.772Z,597.00
2023-02-08T02:37:44.843Z,593.00
2023-02-08T02:38:14.915Z,592.00
2023-02-08T02:38:45.005Z,590.00
2023-02-08T02:39:15.090Z,588.00
2023-02-08T02:39:45.174Z,588.00
2023-02-08T02:40:15.267Z,588.00
2023-02-08T02:40:45.324Z,588.00
2023-02-08T02:41:15.411Z,587.00
2023-02-08T02:41:45.501Z,588.00
2023-02-08T02:42:15.576Z,585.00
2023-02-08T02:42:45.660Z,587.00
2023-02-08T02:43:15.744Z,585.00
2023-02-08T02:43:45.827Z,585.00
2023-02-08T02:44:15.906Z,600.00
2023-02-08T02:44:45.994Z,593.00
2023-02-08T02:45:16.082Z,591.00
2023-02-08T02:45:46.233Z,591.00
2023-02-08T02:46:16.188Z,588.00
2023-02-08T02:46:46.262Z,587.00
2023-02-08T02:47:16.342Z,588.00
2023-02-08T02:47:46.426Z,586.00
2023-02-08T02:48:16.513Z,589.00
2023-02-08T02:48:46.598Z,586.00
2023-02-08T02:49:16.676Z,586.00
2023-02-08T02:49:46.753Z,589.00
2023-02-08T02:50:16.843Z,592.00
2023-02-08T02:50:46.925Z,592.00
2023-02-08T02:51:17.028Z,592.00
2023-02-08T02:51:47.088Z,592.00
2023-02-08T02:52:17.171Z,591.00
2023-02-08T02:52:47.279Z,590.00
2023-02-08T02:53:17.342Z,593.00
2023-02-08T02:53:47.422Z,594.00
2023-02-08T02:54:17.514Z,599.00
2023-02-08T02:54:47.595Z,596.00
2023-02-08T02:55:17.676Z,595.00
2023-02-08T02:55:47.752Z,602.00
2023-02-08T02:56:17.837Z,594.00
2023-02-08T02:56:47.918Z,595.00
2023-02-08T02:57:18.001Z,590.00
2023-02-08T02:57:48.072Z,589.00
2023-02-08T02:58:18.154Z,587.00
2023-02-08T02:58:48.242Z,589.00
2023-02-08T02:59:18.337Z,583.00
2023-02-08T02:59:48.411Z,584.00
2023-02-08T03:00:18.488Z,587.00
2023-02-08T03:00:48.697Z,588.00
2023-02-08T03:01:18.753Z,583.00
2023-02-08T03:01:48.701Z,586.00
2023-02-08T03:02:18.783Z,586.00
2023-02-08T03:02:48.860Z,587.00
2023-02-08T03:03:18.952Z,590.00
2023-02-08T03:03:49.045Z,588.00
2023-02-08T03:04:19.182Z,586.00
2023-02-08T03:04:49.128Z,589.00
2023-02-08T03:05:19.181Z,590.00
2023-02-08T03:05:49.210Z,590.00
2023-02-08T03:06:19.267Z,589.00
2023-02-08T03:06:49.291Z,586.00
2023-02-08T03:07:19.346Z,585.00
2023-02-08T03:07:49.366Z,586.00
2023-02-08T03:08:19.423Z,586.00
2023-02-08T03:08:49.442Z,582.00
2023-02-08T03:09:19.479Z,584.00
2023-02-08T03:09:49.506Z,584.00
2023-02-08T03:10:19.557Z,582.00
2023-02-08T03:10:49.577Z,583.00
2023-02-08T03:11:19.625Z,584.00
2023-02-08T03:11:49.665Z,582.00
2023-02-08T03:12:19.736Z,584.00
2023-02-08T03:12:49.750Z,585.00
2023-02-08T03:13:19.782Z,587.00
2023-02-08T03:13:49.827Z,585.00
2023-02-08T03:14:19.856Z,584.00
2023-02-08T03:14:49.886Z,585.00
2023-02-08T03:15:19.954Z,585.00
2023-02-08T03:15:50.038Z,584.00
2023-02-08T03:16:20.270Z,585.00
2023-02-08T03:16:50.212Z,587.00
2023-02-08T03:17:20.166Z,583.00
2023-02-08T03:17:50.247Z,581.00
2023-02-08T03:18:20.332Z,583.00
2023-02-08T03:18:50.425Z,580.00
2023-02-08T03:19:20.514Z,579.00
2023-02-08T03:19:50.602Z,581.00
2023-02-08T03:20:20.680Z,583.00
2023-02-08T03:20:50.769Z,583.00
2023-02-08T03:21:20.845Z,584.00
2023-02-08T03:21:50.932Z,585.00
2023-02-08T03:22:21.015Z,588.00
2023-02-08T03:22:51.082Z,586.00
2023-02-08T03:23:21.194Z,584.00
2023-02-08T03:23:51.269Z,583.00
2023-02-08T03:24:21.372Z,585.00
2023-02-08T03:24:51.437Z,584.00
2023-02-08T03:25:21.511Z,584.00
2023-02-08T03:25:51.589Z,584.00
2023-02-08T03:26:21.670Z,584.00
2023-02-08T03:26:51.752Z,582.00
2023-02-08T03:27:21.831Z,581.00
2023-02-08T03:27:52.017Z,582.00
2023-02-08T03:28:22.014Z,583.00
2023-02-08T03:28:52.010Z,594.00
2023-02-08T03:29:21.979Z,584.00
2023-02-08T03:29:52.053Z,583.00
2023-02-08T03:30:22.137Z,583.00
2023-02-08T03:30:52.359Z,585.00
2023-02-08T03:31:22.399Z,583.00
2023-02-08T03:31:52.405Z,583.00
2023-02-08T03:32:22.370Z,581.00
2023-02-08T03:32:52.457Z,580.00
2023-02-08T03:33:22.546Z,583.00
2023-02-08T03:33:52.658Z,581.00
2023-02-08T03:34:22.731Z,585.00
2023-02-08T03:34:52.818Z,588.00
2023-02-08T03:35:22.896Z,586.00
2023-02-08T03:35:52.996Z,585.00
2023-02-08T03:36:23.076Z,583.00
2023-02-08T03:36:53.134Z,582.00
2023-02-08T03:37:23.214Z,584.00
2023-02-08T03:37:53.300Z,579.00
2023-02-08T03:38:23.410Z,579.00
2023-02-08T03:38:53.474Z,583.00
2023-02-08T03:39:23.556Z,583.00
2023-02-08T03:39:53.635Z,581.00
2023-02-08T03:40:23.716Z,576.00
2023-02-08T03:40:53.797Z,584.00
2023-02-08T03:41:23.870Z,581.00
2023-02-08T03:41:53.949Z,579.00
2023-02-08T03:42:24.046Z,581.00
2023-02-08T03:42:54.122Z,579.00
2023-02-08T03:43:24.203Z,583.00
2023-02-08T03:43:54.305Z,579.00
2023-02-08T03:44:24.385Z,580.00
2023-02-08T03:44:54.470Z,575.00
2023-02-08T03:45:24.557Z,575.00
2023-02-08T03:45:54.678Z,576.00
2023-02-08T03:46:24.879Z,574.00
2023-02-08T03:46:54.729Z,572.00
2023-02-08T03:47:24.811Z,574.00
2023-02-08T03:47:54.892Z,573.00
2023-02-08T03:48:24.978Z,571.00
2023-02-08T03:48:55.117Z,572.00
2023-02-08T03:49:25.176Z,574.00
2023-02-08T03:49:55.256Z,573.00
2023-02-08T03:50:25.340Z,575.00
2023-02-08T03:50:55.411Z,576.00
2023-02-08T03:51:25.493Z,575.00
2023-02-08T03:51:55.570Z,575.00
2023-02-08T03:52:25.645Z,572.00
2023-02-08T03:52:55.731Z,572.00
2023-02-08T03:53:25.843Z,571.00
2023-02-08T03:53:55.930Z,570.00
2023-02-08T03:54:26.005Z,571.00
2023-02-08T03:54:56.080Z,574.00
2023-02-08T03:55:26.168Z,575.00
2023-02-08T03:55:56.260Z,572.00
2023-02-08T03:56:26.342Z,572.00
2023-02-08T03:56:56.422Z,572.00
2023-02-08T03:57:26.531Z,572.00
2023-02-08T03:57:56.609Z,574.00
2023-02-08T03:58:26.701Z,573.00
2023-02-08T03:58:56.791Z,572.00
2023-02-08T03:59:26.877Z,571.00
2023-02-08T03:59:56.980Z,570.00
2023-02-08T04:00:27.045Z,570.00
2023-02-08T04:00:57.122Z,566.00
2023-02-08T04:01:27.261Z,565.00
2023-02-08T04:01:57.219Z,567.00
2023-02-08T04:02:27.324Z,566.00
2023-02-08T04:02:57.403Z,566.00
2023-02-08T04:03:27.481Z,566.00
2023-02-08T04:03:57.581Z,568.00
2023-02-08T04:04:27.670Z,568.00
2023-02-08T04:04:57.757Z,567.00
2023-02-08T04:05:27.794Z,565.00
2023-02-08T04:05:57.840Z,565.00
2023-02-08T04:06:27.871Z,569.00
2023-02-08T04:06:57.908Z,570.00
2023-02-08T04:07:27.938Z,573.00
2023-02-08T04:07:57.988Z,576.00
2023-02-08T04:08:28.052Z,567.00
2023-02-08T04:08:58.053Z,567.00
2023-02-08T04:09:28.106Z,563.00
2023-02-08T04:09:58.151Z,570.00
2023-02-08T04:10:28.186Z,570.00
2023-02-08T04:10:58.219Z,568.00
2023-02-08T04:11:28.252Z,571.00
2023-02-08T04:11:58.289Z,569.00
2023-02-08T04:12:28.346Z,569.00
2023-02-08T04:12:58.386Z,567.00
2023-02-08T04:13:28.412Z,572.00
2023-02-08T04:13:58.446Z,572.00
2023-02-08T04:14:28.503Z,574.00
2023-02-08T04:14:58.584Z,574.00
2023-02-08T04:15:28.604Z,571.00
2023-02-08T04:15:58.675Z,569.00
2023-02-08T04:16:28.623Z,568.00
2023-02-08T04:16:58.715Z,568.00
2023-02-08T04:17:28.793Z,568.00
2023-02-08T04:17:58.869Z,568.00
2023-02-08T04:18:28.952Z,570.00
2023-02-08T04:18:59.028Z,571.00
2023-02-08T04:19:29.112Z,571.00
2023-02-08T04:19:59.196Z,573.00
2023-02-08T04:20:29.277Z,575.00
2023-02-08T04:20:59.352Z,572.00
2023-02-08T04:21:29.445Z,572.00
2023-02-08T04:21:59.526Z,574.00
2023-02-08T04:22:29.608Z,573.00
2023-02-08T04:22:59.677Z,574.00
2023-02-08T04:23:29.760Z,575.00
2023-02-08T04:23:59.872Z,571.00
2023-02-08T04:24:29.932Z,572.00
2023-02-08T04:25:00.007Z,572.00
2023-02-08T04:25:30.091Z,576.00
2023-02-08T04:26:00.168Z,574.00
2023-02-08T04:26:30.268Z,577.00
2023-02-08T04:27:00.329Z,571.00
2023-02-08T04:27:30.410Z,582.00
2023-02-08T04:28:00.623Z,574.00
2023-02-08T04:28:30.583Z,569.00
2023-02-08T04:29:00.668Z,569.00
2023-02-08T04:29:30.756Z,567.00
2023-02-08T04:30:00.842Z,569.00
2023-02-08T04:30:30.957Z,564.00
2023-02-08T04:31:01.153Z,563.00
2023-02-08T04:31:31.152Z,563.00
2023-02-08T04:32:01.150Z,565.00
2023-02-08T04:32:31.227Z,567.00
2023-02-08T04:33:01.328Z,571.00
2023-02-08T04:33:31.401Z,567.00
2023-02-08T04:34:01.879Z,570.00
2023-02-08T04:34:31.498Z,571.00
2023-02-08T04:35:01.584Z,571.00
2023-02-08T04:35:31.664Z,573.00
2023-02-08T04:36:01.774Z,572.00
2023-02-08T04:36:31.845Z,570.00
2023-02-08T04:37:01.917Z,570.00
2023-02-08T04:37:31.996Z,570.00
2023-02-08T04:38:02.086Z,571.00
2023-02-08T04:38:32.173Z,572.00
2023-02-08T04:39:02.282Z,569.00
2023-02-08T04:39:32.336Z,573.00
2023-02-08T04:40:02.405Z,571.00
2023-02-08T04:40:32.489Z,567.00
2023-02-08T04:41:02.575Z,564.00
2023-02-08T04:41:32.667Z,563.00
2023-02-08T04:42:03.446Z,563.00
2023-02-08T04:42:32.855Z,562.00
2023-02-08T04:43:02.934Z,560.00
2023-02-08T04:43:33.020Z,566.00
2023-02-08T04:44:03.104Z,569.00
2023-02-08T04:44:33.193Z,566.00
2023-02-08T04:45:03.277Z,566.00
2023-02-08T04:45:33.365Z,568.00
2023-02-08T04:46:03.503Z,568.00
2023-02-08T04:46:33.488Z,568.00
2023-02-08T04:47:03.544Z,570.00
2023-02-08T04:47:33.630Z,570.00
2023-02-08T04:48:03.717Z,569.00
2023-02-08T04:48:33.796Z,568.00
2023-02-08T04:49:03.875Z,568.00
2023-02-08T04:49:33.962Z,569.00
2023-02-08T04:50:04.067Z,570.00
2023-02-08T04:50:34.157Z,568.00
2023-02-08T04:51:04.233Z,562.00
2023-02-08T04:51:34.316Z,564.00
2023-02-08T04:52:04.396Z,564.00
2023-02-08T04:52:34.481Z,564.00
2023-02-08T04:53:04.562Z,567.00
2023-02-08T04:53:34.647Z,567.00
2023-02-08T04:54:04.845Z,567.00
2023-02-08T04:54:34.837Z,568.00
2023-02-08T04:55:04.898Z,568.00
2023-02-08T04:55:34.975Z,566.00
2023-02-08T04:56:05.052Z,567.00
2023-02-08T04:56:35.137Z,567.00
2023-02-08T04:57:05.227Z,567.00
2023-02-08T04:57:35.311Z,570.00
2023-02-08T04:58:05.386Z,568.00
2023-02-08T04:58:35.470Z,570.00
2023-02-08T04:59:05.554Z,572.00
2023-02-08T04:59:35.648Z,570.00
2023-02-08T05:00:05.719Z,569.00
2023-02-08T05:00:35.797Z,567.00
2023-02-08T05:01:05.893Z,568.00
2023-02-08T05:01:36.035Z,574.00
2023-02-08T05:02:06.034Z,571.00
2023-02-08T05:02:36.076Z,572.00
2023-02-08T05:03:06.166Z,570.00
2023-02-08T05:03:36.245Z,569.00
2023-02-08T05:04:06.347Z,572.00
2023-02-08T05:04:36.431Z,573.00
2023-02-08T05:05:06.614Z,572.00
2023-02-08T05:05:36.563Z,572.00
2023-02-08T05:06:06.596Z,573.00
2023-02-08T05:06:36.633Z,574.00
2023-02-08T05:07:06.679Z,578.00
2023-02-08T05:07:36.713Z,565.00
2023-02-08T05:08:06.752Z,564.00
2023-02-08T05:08:36.803Z,577.00
2023-02-08T05:09:06.826Z,565.00
2023-02-08T05:09:36.872Z,567.00
2023-02-08T05:10:06.946Z,569.00
2023-02-08T05:10:36.975Z,568.00
2023-02-08T05:11:07.017Z,563.00
2023-02-08T05:11:37.056Z,570.00
2023-02-08T05:12:07.101Z,566.00
2023-02-08T05:12:37.136Z,564.00
2023-02-08T05:13:07.174Z,564.00
2023-02-08T05:13:37.219Z,565.00
2023-02-08T05:14:07.259Z,566.00
2023-02-08T05:14:37.318Z,570.00
2023-02-08T05:15:07.370Z,571.00
2023-02-08T05:15:37.461Z,571.00
2023-02-08T05:16:07.669Z,575.00
2023-02-08T05:16:37.640Z,601.00
2023-02-08T05:17:07.723Z,605.00
2023-02-08T05:17:37.804Z,601.00
2023-02-08T05:18:07.888Z,597.00
2023-02-08T05:18:37.975Z,597.00
2023-02-08T05:19:08.063Z,596.00
2023-02-08T05:19:38.154Z,595.00
2023-02-08T05:20:08.237Z,594.00
2023-02-08T05:20:38.417Z,594.00
2023-02-08T05:21:08.409Z,589.00
2023-02-08T05:21:38.497Z,584.00
2023-02-08T05:22:08.584Z,584.00
2023-02-08T05:22:38.669Z,585.00
2023-02-08T05:23:08.751Z,589.00
2023-02-08T05:23:38.826Z,589.00
2023-02-08T05:24:08.917Z,590.00
2023-02-08T05:24:39.004Z,592.00
2023-02-08T05:25:09.111Z,590.00
2023-02-08T05:25:39.171Z,594.00
2023-02-08T05:26:09.257Z,598.00
2023-02-08T05:26:39.348Z,598.00
2023-02-08T05:27:09.432Z,602.00
2023-02-08T05:27:39.508Z,602.00
2023-02-08T05:28:09.724Z,600.00
2023-02-08T05:28:39.673Z,603.00
2023-02-08T05:29:09.766Z,603.00
2023-02-08T05:29:39.838Z,605.00
2023-02-08T05:30:09.926Z,606.00
2023-02-08T05:30:40.319Z,606.00
2023-02-08T05:31:10.105Z,606.00
2023-02-08T05:31:40.152Z,607.00
2023-02-08T05:32:10.178Z,604.00
2023-02-08T05:32:40.257Z,605.00
2023-02-08T05:33:10.354Z,607.00
2023-02-08T05:33:40.433Z,605.00
2023-02-08T05:34:10.513Z,608.00
2023-02-08T05:34:40.590Z,607.00
2023-02-08T05:35:10.682Z,608.00
2023-02-08T05:35:40.772Z,610.00
2023-02-08T05:36:10.851Z,613.00
2023-02-08T05:36:40.930Z,612.00
2023-02-08T05:37:11.012Z,611.00
2023-02-08T05:37:41.097Z,614.00
2023-02-08T05:38:11.181Z,622.00
2023-02-08T05:38:41.257Z,608.00
2023-02-08T05:39:11.342Z,608.00
2023-02-08T05:39:41.446Z,609.00
2023-02-08T05:40:11.520Z,612.00
2023-02-08T05:40:41.889Z,612.00
2023-02-08T05:41:11.691Z,611.00
2023-02-08T05:41:41.773Z,611.00
2023-02-08T05:42:11.861Z,612.00
2023-02-08T05:42:41.943Z,613.00
2023-02-08T05:43:12.023Z,611.00
2023-02-08T05:43:42.103Z,616.00
2023-02-08T05:44:12.189Z,613.00
2023-02-08T05:44:42.278Z,615.00
2023-02-08T05:45:12.354Z,619.00
2023-02-08T05:45:42.436Z,615.00
2023-02-08T05:46:12.517Z,614.00
2023-02-08T05:46:42.645Z,611.00
2023-02-08T05:47:12.719Z,614.00
2023-02-08T05:47:42.788Z,618.00
2023-02-08T05:48:12.875Z,621.00
2023-02-08T05:48:42.956Z,622.00
2023-02-08T05:49:13.039Z,624.00
2023-02-08T05:49:43.122Z,625.00
2023-02-08T05:50:13.196Z,626.00
2023-02-08T05:50:43.294Z,627.00
2023-02-08T05:51:13.403Z,624.00
2023-02-08T05:51:43.402Z,626.00
2023-02-08T05:52:13.491Z,627.00
2023-02-08T05:52:43.561Z,628.00
2023-02-08T05:53:13.639Z,627.00
2023-02-08T05:53:43.722Z,622.00
2023-02-08T05:54:13.814Z,622.00
2023-02-08T05:54:43.888Z,620.00
2023-02-08T05:55:13.974Z,621.00
2023-02-08T05:55:44.075Z,622.00
2023-02-08T05:56:14.146Z,622.00
2023-02-08T05:56:44.247Z,622.00
2023-02-08T05:57:14.309Z,626.00
2023-02-08T05:57:44.390Z,626.00
2023-02-08T05:58:14.471Z,626.00
2023-02-08T05:58:44.558Z,631.00
2023-02-08T05:59:14.641Z,631.00
2023-02-08T05:59:44.717Z,630.00
2023-02-08T06:00:14.808Z,624.00
2023-02-08T06:00:44.899Z,624.00
2023-02-08T06:01:15.001Z,622.00
2023-02-08T06:01:45.079Z,622.00
2023-02-08T06:02:15.166Z,624.00
2023-02-08T06:02:45.272Z,625.00
2023-02-08T06:03:15.317Z,625.00
2023-02-08T06:03:45.387Z,629.00
2023-02-08T06:04:15.613Z,631.00
2023-02-08T06:04:45.446Z,630.00
2023-02-08T06:05:15.515Z,629.00
2023-02-08T06:05:45.530Z,630.00
2023-02-08T06:06:15.580Z,629.00
2023-02-08T06:06:45.612Z,630.00
2023-02-08T06:07:15.641Z,628.00
2023-02-08T06:07:45.695Z,630.00
2023-02-08T06:08:15.722Z,627.00
2023-02-08T06:08:45.749Z,628.00
2023-02-08T06:09:15.803Z,628.00
2023-02-08T06:09:48.182Z,629.00
2023-02-08T06:10:15.906Z,635.00
2023-02-08T06:10:45.943Z,634.00
2023-02-08T06:11:16.007Z,632.00
2023-02-08T06:11:46.019Z,633.00
2023-02-08T06:12:16.060Z,633.00
2023-02-08T06:12:46.086Z,633.00
2023-02-08T06:13:16.119Z,636.00
2023-02-08T06:13:46.167Z,634.00
2023-02-08T06:14:16.200Z,631.00
2023-02-08T06:14:46.229Z,635.00
2023-02-08T06:15:16.303Z,633.00
2023-02-08T06:15:46.382Z,631.00